sensor_id;sensor_type;location;lat;lon;timestamp;pressure;altitude;pressure_sealevel;temperature;humidity
75942;BME280;64622;46.220;19.878;2023-06-22T00:02:19;100762.25;;;22.60;100.00
75942;BME280;64622;46.220;19.878;2023-06-22T00:04:46;100763.38;;;22.52;100.00
75942;BME280;64622;46.220;19.878;2023-06-22T00:07:13;100745.59;;;22.43;100.00
75942;BME280;64622;46.220;19.878;2023-06-22T00:09:39;100750.66;;;22.40;100.00
75942;BME280;64622;46.220;19.878;2023-06-22T00:12:06;100731.03;;;22.31;100.00
75942;BME280;64622;46.220;19.878;2023-06-22T00:14:33;100725.78;;;22.30;100.00
75942;BME280;64622;46.220;19.878;2023-06-22T00:17:00;100720.38;;;22.23;100.00
75942;BME280;64622;46.220;19.878;2023-06-22T00:19:27;100734.88;;;22.24;100.00
75942;BME280;64622;46.220;19.878;2023-06-22T00:21:53;100729.53;;;22.11;100.00
75942;BME280;64622;46.220;19.878;2023-06-22T00:24:23;100733.94;;;22.12;100.00
75942;BME280;64622;46.220;19.878;2023-06-22T00:26:50;100729.59;;;22.04;100.00
75942;BME280;64622;46.220;19.878;2023-06-22T00:29:17;100730.19;;;22.06;100.00
75942;BME280;64622;46.220;19.878;2023-06-22T00:31:44;100731.69;;;22.02;100.00
75942;BME280;64622;46.220;19.878;2023-06-22T00:34:11;100713.69;;;22.01;100.00
75942;BME280;64622;46.220;19.878;2023-06-22T00:36:38;100706.66;;;21.87;100.00
75942;BME280;64622;46.220;19.878;2023-06-22T00:39:07;100702.28;;;21.86;100.00
75942;BME280;64622;46.220;19.878;2023-06-22T00:41:34;100698.53;;;21.81;100.00
75942;BME280;64622;46.220;19.878;2023-06-22T00:44:01;100697.53;;;21.75;100.00
75942;BME280;64622;46.220;19.878;2023-06-22T00:46:27;100702.78;;;21.77;100.00
75942;BME280;64622;46.220;19.878;2023-06-22T00:48:54;100694.84;;;21.69;100.00
75942;BME280;64622;46.220;19.878;2023-06-22T00:51:23;100681.25;;;21.62;100.00
75942;BME280;64622;46.220;19.878;2023-06-22T00:53:51;100693.19;;;21.61;100.00
75942;BME280;64622;46.220;19.878;2023-06-22T00:56:20;100685.72;;;21.57;100.00
75942;BME280;64622;46.220;19.878;2023-06-22T00:58:51;100685.03;;;21.61;100.00
75942;BME280;64622;46.220;19.878;2023-06-22T01:01:19;100685.72;;;21.57;100.00
75942;BME280;64622;46.220;19.878;2023-06-22T01:03:50;100693.00;;;21.63;100.00
75942;BME280;64622;46.220;19.878;2023-06-22T01:06:22;100684.91;;;21.50;100.00
75942;BME280;64622;46.220;19.878;2023-06-22T01:09:02;100681.34;;;21.49;100.00
75942;BME280;64622;46.220;19.878;2023-06-22T01:11:38;100679.28;;;21.45;100.00
75942;BME280;64622;46.220;19.878;2023-06-22T01:14:28;100697.28;;;21.46;100.00
75942;BME280;64622;46.220;19.878;2023-06-22T01:16:59;100707.56;;;21.44;100.00
75942;BME280;64622;46.220;19.878;2023-06-22T01:19:50;100698.78;;;21.42;100.00
75942;BME280;64622;46.220;19.878;2023-06-22T01:22:19;100709.22;;;21.45;100.00
75942;BME280;64622;46.220;19.878;2023-06-22T01:28:19;100720.75;;;21.47;100.00
75942;BME280;64622;46.220;19.878;2023-06-22T01:30:49;100728.97;;;21.40;100.00
75942;BME280;64622;46.220;19.878;2023-06-22T01:33:34;100710.78;;;21.34;100.00
75942;BME280;64622;46.220;19.878;2023-06-22T01:36:03;100705.97;;;21.30;100.00
75942;BME280;64622;46.220;19.878;2023-06-22T01:38:30;100708.09;;;21.28;100.00
75942;BME280;64622;46.220;19.878;2023-06-22T01:40:57;100703.75;;;21.14;100.00
75942;BME280;64622;46.220;19.878;2023-06-22T01:43:26;100697.47;;;21.13;100.00
75942;BME280;64622;46.220;19.878;2023-06-22T01:45:56;100695.19;;;21.10;100.00
75942;BME280;64622;46.220;19.878;2023-06-22T01:48:23;100692.84;;;21.20;100.00
75942;BME280;64622;46.220;19.878;2023-06-22T01:50:53;100691.37;;;21.18;100.00
75942;BME280;64622;46.220;19.878;2023-06-22T01:53:21;100697.03;;;21.16;100.00
75942;BME280;64622;46.220;19.878;2023-06-22T01:55:48;100688.47;;;21.13;100.00
75942;BME280;64622;46.220;19.878;2023-06-22T01:58:16;100684.72;;;21.07;100.00
75942;BME280;64622;46.220;19.878;2023-06-22T02:00:48;100669.88;;;21.03;100.00
75942;BME280;64622;46.220;19.878;2023-06-22T02:03:23;100657.81;;;20.93;100.00
75942;BME280;64622;46.220;19.878;2023-06-22T02:05:56;100665.34;;;20.91;100.00
75942;BME280;64622;46.220;19.878;2023-06-22T02:08:30;100651.13;;;20.82;100.00
75942;BME280;64622;46.220;19.878;2023-06-22T02:11:00;100660.34;;;20.81;100.00
75942;BME280;64622;46.220;19.878;2023-06-22T02:13:29;100666.84;;;20.74;100.00
75942;BME280;64622;46.220;19.878;2023-06-22T02:15:57;100684.44;;;20.71;100.00
75942;BME280;64622;46.220;19.878;2023-06-22T02:18:24;100688.19;;;20.77;100.00
75942;BME280;64622;46.220;19.878;2023-06-22T02:20:51;100699.69;;;20.79;100.00
75942;BME280;64622;46.220;19.878;2023-06-22T02:23:18;100704.94;;;20.80;100.00
75942;BME280;64622;46.220;19.878;2023-06-22T02:25:45;100711.19;;;20.81;100.00
75942;BME280;64622;46.220;19.878;2023-06-22T02:28:12;100703.28;;;20.66;100.00
75942;BME280;64622;46.220;19.878;2023-06-22T02:30:38;100707.47;;;20.69;100.00
75942;BME280;64622;46.220;19.878;2023-06-22T02:33:06;100708.06;;;20.71;100.00
75942;BME280;64622;46.220;19.878;2023-06-22T02:35:33;100700.16;;;20.63;100.00
75942;BME280;64622;46.220;19.878;2023-06-22T02:38:03;100697.66;;;20.61;100.00
75942;BME280;64622;46.220;19.878;2023-06-22T02:40:31;100695.59;;;20.57;100.00
75942;BME280;64622;46.220;19.878;2023-06-22T02:42:58;100687.84;;;20.54;100.00
75942;BME280;64622;46.220;19.878;2023-06-22T02:45:28;100698.31;;;20.57;100.00
75942;BME280;64622;46.220;19.878;2023-06-22T02:47:55;100697.06;;;20.46;100.00
75942;BME280;64622;46.220;19.878;2023-06-22T02:50:23;100706.09;;;20.40;100.00
75942;BME280;64622;46.220;19.878;2023-06-22T02:52:50;100697.72;;;20.35;100.00
75942;BME280;64622;46.220;19.878;2023-06-22T02:55:17;100707.53;;;20.43;100.00
75942;BME280;64622;46.220;19.878;2023-06-22T02:57:45;100709.84;;;20.39;100.00
75942;BME280;64622;46.220;19.878;2023-06-22T03:00:13;100710.47;;;20.41;100.00
75942;BME280;64622;46.220;19.878;2023-06-22T03:02:45;100706.28;;;20.39;100.00
75942;BME280;64622;46.220;19.878;2023-06-22T03:05:13;100711.13;;;20.37;100.00
75942;BME280;64622;46.220;19.878;2023-06-22T03:07:41;100726.78;;;20.41;100.00
75942;BME280;64622;46.220;19.878;2023-06-22T03:10:12;100711.31;;;20.29;100.00
75942;BME280;64622;46.220;19.878;2023-06-22T03:12:40;100709.47;;;20.23;100.00
75942;BME280;64622;46.220;19.878;2023-06-22T03:15:12;100720.75;;;20.26;100.00
75942;BME280;64622;46.220;19.878;2023-06-22T03:17:39;100724.31;;;20.33;100.00
75942;BME280;64622;46.220;19.878;2023-06-22T03:20:08;100741.22;;;20.35;100.00
75942;BME280;64622;46.220;19.878;2023-06-22T03:22:38;100736.00;;;20.47;100.00
75942;BME280;64622;46.220;19.878;2023-06-22T03:25:05;100730.75;;;20.52;100.00
75942;BME280;64622;46.220;19.878;2023-06-22T03:27:43;100725.47;;;20.63;100.00
75942;BME280;64622;46.220;19.878;2023-06-22T03:30:12;100724.84;;;20.68;100.00
75942;BME280;64622;46.220;19.878;2023-06-22T03:32:39;100727.31;;;20.76;100.00
75942;BME280;64622;46.220;19.878;2023-06-22T03:35:06;100736.72;;;20.93;100.00
75942;BME280;64622;46.220;19.878;2023-06-22T03:37:33;100732.94;;;20.94;100.00
75942;BME280;64622;46.220;19.878;2023-06-22T03:40:00;100742.75;;;21.01;100.00
75942;BME280;64622;46.220;19.878;2023-06-22T03:42:28;100750.91;;;21.08;100.00
75942;BME280;64622;46.220;19.878;2023-06-22T03:44:55;100743.59;;;21.02;100.00
75942;BME280;64622;46.220;19.878;2023-06-22T03:47:22;100741.66;;;21.15;100.00
75942;BME280;64622;46.220;19.878;2023-06-22T03:49:48;100748.00;;;20.96;100.00
75942;BME280;64622;46.220;19.878;2023-06-22T03:52:15;100741.50;;;21.04;100.00
75942;BME280;64622;46.220;19.878;2023-06-22T03:54:42;100734.81;;;21.00;100.00
75942;BME280;64622;46.220;19.878;2023-06-22T03:57:08;100748.97;;;21.15;100.00
75942;BME280;64622;46.220;19.878;2023-06-22T03:59:35;100733.34;;;20.97;100.00
75942;BME280;64622;46.220;19.878;2023-06-22T04:02:03;100737.28;;;21.08;100.00
75942;BME280;64622;46.220;19.878;2023-06-22T04:04:30;100734.75;;;21.19;100.00
75942;BME280;64622;46.220;19.878;2023-06-22T04:06:56;100737.84;;;21.23;100.00
75942;BME280;64622;46.220;19.878;2023-06-22T04:09:23;100745.53;;;21.32;100.00
75942;BME280;64622;46.220;19.878;2023-06-22T04:11:50;100749.31;;;21.38;100.00
75942;BME280;64622;46.220;19.878;2023-06-22T04:14:17;100751.66;;;21.28;100.00
75942;BME280;64622;46.220;19.878;2023-06-22T04:16:44;100754.28;;;21.41;100.00
75942;BME280;64622;46.220;19.878;2023-06-22T04:19:10;100758.66;;;21.48;100.00
75942;BME280;64622;46.220;19.878;2023-06-22T04:21:43;100756.84;;;21.36;100.00
75942;BME280;64622;46.220;19.878;2023-06-22T04:24:11;100762.66;;;21.46;100.00
75942;BME280;64622;46.220;19.878;2023-06-22T04:26:38;100757.56;;;21.56;100.00
75942;BME280;64622;46.220;19.878;2023-06-22T04:29:08;100750.66;;;21.53;100.00
75942;BME280;64622;46.220;19.878;2023-06-22T04:31:37;100755.66;;;21.63;100.00
75942;BME280;64622;46.220;19.878;2023-06-22T04:34:06;100752.81;;;21.82;100.00
75942;BME280;64622;46.220;19.878;2023-06-22T04:36:37;100756.03;;;21.66;100.00
75942;BME280;64622;46.220;19.878;2023-06-22T04:39:08;100757.28;;;21.77;100.00
75942;BME280;64622;46.220;19.878;2023-06-22T04:41:39;100753.50;;;22.02;100.00
75942;BME280;64622;46.220;19.878;2023-06-22T04:44:13;100757.47;;;22.06;100.00
75942;BME280;64622;46.220;19.878;2023-06-22T04:46:57;100758.69;;;22.35;100.00
75942;BME280;64622;46.220;19.878;2023-06-22T04:49:29;100759.22;;;22.43;100.00
75942;BME280;64622;46.220;19.878;2023-06-22T04:52:00;100758.19;;;22.69;100.00
75942;BME280;64622;46.220;19.878;2023-06-22T04:54:27;100750.59;;;22.89;100.00
75942;BME280;64622;46.220;19.878;2023-06-22T04:56:54;100751.53;;;22.83;100.00
75942;BME280;64622;46.220;19.878;2023-06-22T04:59:23;100766.59;;;22.85;100.00
75942;BME280;64622;46.220;19.878;2023-06-22T05:01:55;100763.63;;;23.05;100.00
75942;BME280;64622;46.220;19.878;2023-06-22T05:04:22;100765.09;;;23.25;100.00
75942;BME280;64622;46.220;19.878;2023-06-22T05:06:52;100762.87;;;23.34;99.61
75942;BME280;64622;46.220;19.878;2023-06-22T05:09:19;100758.81;;;23.54;99.26
75942;BME280;64622;46.220;19.878;2023-06-22T05:11:46;100756.63;;;23.74;98.70
75942;BME280;64622;46.220;19.878;2023-06-22T05:14:13;100757.78;;;23.55;99.13
75942;BME280;64622;46.220;19.878;2023-06-22T05:16:44;100753.16;;;23.67;98.39
75942;BME280;64622;46.220;19.878;2023-06-22T05:19:11;100762.25;;;23.50;98.95
75942;BME280;64622;46.220;19.878;2023-06-22T05:21:38;100763.72;;;23.64;99.01
75942;BME280;64622;46.220;19.878;2023-06-22T05:24:05;100760.47;;;23.85;98.63
75942;BME280;64622;46.220;19.878;2023-06-22T05:26:33;100748.81;;;24.19;98.17
75942;BME280;64622;46.220;19.878;2023-06-22T05:29:02;100753.47;;;24.53;97.70
75942;BME280;64622;46.220;19.878;2023-06-22T05:31:29;100757.53;;;24.62;96.64
75942;BME280;64622;46.220;19.878;2023-06-22T05:33:56;100764.50;;;24.23;97.00
75942;BME280;64622;46.220;19.878;2023-06-22T05:36:22;100767.03;;;24.59;96.66
75942;BME280;64622;46.220;19.878;2023-06-22T05:38:52;100762.25;;;24.32;98.09
75942;BME280;64622;46.220;19.878;2023-06-22T05:41:19;100749.56;;;24.60;96.02
75942;BME280;64622;46.220;19.878;2023-06-22T05:43:46;100762.69;;;24.06;97.13
75942;BME280;64622;46.220;19.878;2023-06-22T05:46:13;100782.00;;;24.34;96.65
75942;BME280;64622;46.220;19.878;2023-06-22T05:48:39;100773.69;;;24.40;96.56
75942;BME280;64622;46.220;19.878;2023-06-22T05:51:06;100783.91;;;24.33;96.44
75942;BME280;64622;46.220;19.878;2023-06-22T05:53:33;100772.75;;;24.46;96.68
75942;BME280;64622;46.220;19.878;2023-06-22T05:55:59;100777.72;;;24.49;94.89
75942;BME280;64622;46.220;19.878;2023-06-22T05:58:25;100779.06;;;24.58;95.43
75942;BME280;64622;46.220;19.878;2023-06-22T06:00:52;100775.66;;;24.63;95.50
75942;BME280;64622;46.220;19.878;2023-06-22T06:03:19;100784.03;;;25.19;94.44
75942;BME280;64622;46.220;19.878;2023-06-22T06:05:45;100785.22;;;25.23;94.06
75942;BME280;64622;46.220;19.878;2023-06-22T06:08:12;100784.78;;;25.03;92.47
75942;BME280;64622;46.220;19.878;2023-06-22T06:10:39;100784.16;;;25.01;94.48
75942;BME280;64622;46.220;19.878;2023-06-22T06:13:06;100781.53;;;25.06;94.07
75942;BME280;64622;46.220;19.878;2023-06-22T06:15:33;100784.25;;;25.29;93.33
75942;BME280;64622;46.220;19.878;2023-06-22T06:18:00;100788.31;;;25.15;94.18
75942;BME280;64622;46.220;19.878;2023-06-22T06:20:28;100791.41;;;25.07;93.36
75942;BME280;64622;46.220;19.878;2023-06-22T06:22:55;100781.38;;;25.63;91.76
75942;BME280;64622;46.220;19.878;2023-06-22T06:25:22;100794.44;;;25.73;92.87
75942;BME280;64622;46.220;19.878;2023-06-22T06:27:50;100800.44;;;25.70;92.65
75942;BME280;64622;46.220;19.878;2023-06-22T06:30:18;100785.38;;;25.44;92.25
75942;BME280;64622;46.220;19.878;2023-06-22T06:32:45;100789.25;;;25.32;92.44
75942;BME280;64622;46.220;19.878;2023-06-22T06:35:14;100782.28;;;25.52;93.49
75942;BME280;64622;46.220;19.878;2023-06-22T06:37:43;100782.75;;;25.49;91.62
75942;BME280;64622;46.220;19.878;2023-06-22T06:40:12;100773.31;;;25.29;92.12
75942;BME280;64622;46.220;19.878;2023-06-22T06:42:42;100783.34;;;25.51;91.53
75942;BME280;64622;46.220;19.878;2023-06-22T06:45:12;100780.91;;;25.94;90.36
75942;BME280;64622;46.220;19.878;2023-06-22T06:47:39;100779.72;;;25.62;92.36
75942;BME280;64622;46.220;19.878;2023-06-22T06:50:06;100786.84;;;25.75;91.47
75942;BME280;64622;46.220;19.878;2023-06-22T06:52:34;100780.53;;;25.91;89.32
75942;BME280;64622;46.220;19.878;2023-06-22T06:55:01;100787.50;;;25.82;90.13
75942;BME280;64622;46.220;19.878;2023-06-22T06:57:27;100793.91;;;25.87;89.29
75942;BME280;64622;46.220;19.878;2023-06-22T06:59:57;100791.66;;;26.45;89.26
75942;BME280;64622;46.220;19.878;2023-06-22T07:02:25;100786.28;;;26.67;87.74
75942;BME280;64622;46.220;19.878;2023-06-22T07:04:52;100784.62;;;26.66;85.11
75942;BME280;64622;46.220;19.878;2023-06-22T07:07:19;100791.69;;;26.62;85.81
75942;BME280;64622;46.220;19.878;2023-06-22T07:09:45;100788.47;;;26.65;84.33
75942;BME280;64622;46.220;19.878;2023-06-22T07:12:11;100788.59;;;26.75;84.01
75942;BME280;64622;46.220;19.878;2023-06-22T07:14:38;100783.69;;;26.77;83.73
75942;BME280;64622;46.220;19.878;2023-06-22T07:17:05;100788.84;;;26.90;82.73
75942;BME280;64622;46.220;19.878;2023-06-22T07:19:32;100785.81;;;27.51;81.87
75942;BME280;64622;46.220;19.878;2023-06-22T07:21:59;100785.69;;;27.62;82.33
75942;BME280;64622;46.220;19.878;2023-06-22T07:24:26;100779.63;;;27.87;78.06
75942;BME280;64622;46.220;19.878;2023-06-22T07:26:53;100779.97;;;27.95;78.12
75942;BME280;64622;46.220;19.878;2023-06-22T07:29:20;100781.72;;;28.33;77.95
75942;BME280;64622;46.220;19.878;2023-06-22T07:31:48;100776.81;;;28.76;76.16
75942;BME280;64622;46.220;19.878;2023-06-22T07:34:16;100778.69;;;28.66;75.86
75942;BME280;64622;46.220;19.878;2023-06-22T07:36:43;100777.81;;;28.29;72.92
75942;BME280;64622;46.220;19.878;2023-06-22T07:39:10;100781.38;;;27.71;75.50
75942;BME280;64622;46.220;19.878;2023-06-22T07:41:39;100776.09;;;28.49;74.37
75942;BME280;64622;46.220;19.878;2023-06-22T07:44:07;100776.13;;;28.54;73.46
75942;BME280;64622;46.220;19.878;2023-06-22T07:46:33;100783.47;;;29.27;70.90
75942;BME280;64622;46.220;19.878;2023-06-22T07:49:00;100783.41;;;29.12;72.52
75942;BME280;64622;46.220;19.878;2023-06-22T07:51:28;100777.44;;;29.30;73.07
75942;BME280;64622;46.220;19.878;2023-06-22T07:53:54;100770.06;;;28.52;72.25
75942;BME280;64622;46.220;19.878;2023-06-22T07:56:21;100779.25;;;29.09;69.83
75942;BME280;64622;46.220;19.878;2023-06-22T07:58:48;100768.47;;;28.61;72.76
75942;BME280;64622;46.220;19.878;2023-06-22T08:01:15;100772.25;;;29.48;70.10
75942;BME280;64622;46.220;19.878;2023-06-22T08:03:42;100776.34;;;30.67;65.04
75942;BME280;64622;46.220;19.878;2023-06-22T08:06:09;100769.00;;;31.16;61.49
75942;BME280;64622;46.220;19.878;2023-06-22T08:08:36;100775.97;;;30.99;61.96
75942;BME280;64622;46.220;19.878;2023-06-22T08:11:03;100784.31;;;30.19;63.77
75942;BME280;64622;46.220;19.878;2023-06-22T08:13:30;100785.38;;;30.03;63.03
75942;BME280;64622;46.220;19.878;2023-06-22T08:15:57;100778.69;;;31.14;60.25
75942;BME280;64622;46.220;19.878;2023-06-22T08:18:24;100783.44;;;31.72;57.44
75942;BME280;64622;46.220;19.878;2023-06-22T08:20:50;100787.88;;;31.73;58.29
75942;BME280;64622;46.220;19.878;2023-06-22T08:23:17;100787.25;;;32.30;54.88
75942;BME280;64622;46.220;19.878;2023-06-22T08:25:44;100789.31;;;32.09;54.88
75942;BME280;64622;46.220;19.878;2023-06-22T08:28:10;100779.37;;;32.42;54.79
75942;BME280;64622;46.220;19.878;2023-06-22T08:30:37;100795.97;;;32.75;53.77
75942;BME280;64622;46.220;19.878;2023-06-22T08:33:04;100792.13;;;32.04;56.16
75942;BME280;64622;46.220;19.878;2023-06-22T08:35:30;100794.19;;;31.89;56.35
75942;BME280;64622;46.220;19.878;2023-06-22T08:37:57;100786.56;;;31.56;57.63
75942;BME280;64622;46.220;19.878;2023-06-22T08:40:25;100790.22;;;32.38;54.87
75942;BME280;64622;46.220;19.878;2023-06-22T08:42:51;100783.38;;;33.40;51.50
75942;BME280;64622;46.220;19.878;2023-06-22T08:45:18;100781.91;;;33.47;52.34
75942;BME280;64622;46.220;19.878;2023-06-22T08:47:45;100781.97;;;33.42;53.09
75942;BME280;64622;46.220;19.878;2023-06-22T08:50:12;100778.34;;;33.18;51.29
75942;BME280;64622;46.220;19.878;2023-06-22T08:52:40;100776.88;;;33.49;53.10
75942;BME280;64622;46.220;19.878;2023-06-22T08:55:10;100777.44;;;33.23;53.34
75942;BME280;64622;46.220;19.878;2023-06-22T08:57:37;100771.25;;;33.73;52.03
75942;BME280;64622;46.220;19.878;2023-06-22T09:00:08;100771.97;;;34.02;51.67
75942;BME280;64622;46.220;19.878;2023-06-22T09:02:43;100772.16;;;33.26;52.54
75942;BME280;64622;46.220;19.878;2023-06-22T09:05:10;100760.78;;;33.46;52.39
75942;BME280;64622;46.220;19.878;2023-06-22T09:07:37;100762.28;;;33.39;51.90
75942;BME280;64622;46.220;19.878;2023-06-22T09:10:05;100753.19;;;33.10;54.54
75942;BME280;64622;46.220;19.878;2023-06-22T09:12:32;100767.50;;;32.70;57.16
75942;BME280;64622;46.220;19.878;2023-06-22T09:15:00;100763.69;;;33.36;55.13
75942;BME280;64622;46.220;19.878;2023-06-22T09:17:27;100760.69;;;33.09;55.12
75942;BME280;64622;46.220;19.878;2023-06-22T09:19:54;100755.59;;;32.64;55.82
75942;BME280;64622;46.220;19.878;2023-06-22T09:22:20;100761.19;;;33.40;54.55
75942;BME280;64622;46.220;19.878;2023-06-22T09:24:47;100768.78;;;32.77;56.59
75942;BME280;64622;46.220;19.878;2023-06-22T09:27:14;100767.97;;;32.77;56.43
75942;BME280;64622;46.220;19.878;2023-06-22T09:29:40;100760.50;;;33.24;56.00
75942;BME280;64622;46.220;19.878;2023-06-22T09:32:07;100761.97;;;33.17;54.67
75942;BME280;64622;46.220;19.878;2023-06-22T09:34:34;100751.38;;;33.47;54.25
75942;BME280;64622;46.220;19.878;2023-06-22T09:37:00;100766.03;;;32.77;55.91
75942;BME280;64622;46.220;19.878;2023-06-22T09:39:27;100765.59;;;33.17;54.05
75942;BME280;64622;46.220;19.878;2023-06-22T09:41:54;100770.44;;;33.72;52.40
75942;BME280;64622;46.220;19.878;2023-06-22T09:44:20;100763.97;;;33.58;54.44
75942;BME280;64622;46.220;19.878;2023-06-22T09:46:47;100761.78;;;33.55;54.27
75942;BME280;64622;46.220;19.878;2023-06-22T09:49:13;100765.72;;;33.31;55.04
75942;BME280;64622;46.220;19.878;2023-06-22T09:51:40;100761.81;;;33.32;54.19
75942;BME280;64622;46.220;19.878;2023-06-22T09:54:07;100767.19;;;33.65;53.47
75942;BME280;64622;46.220;19.878;2023-06-22T09:56:33;100752.16;;;33.48;53.96
75942;BME280;64622;46.220;19.878;2023-06-22T09:59:00;100750.75;;;33.69;53.06
75942;BME280;64622;46.220;19.878;2023-06-22T10:01:27;100750.69;;;33.55;53.21
75942;BME280;64622;46.220;19.878;2023-06-22T10:03:55;100754.28;;;33.14;55.15
75942;BME280;64622;46.220;19.878;2023-06-22T10:06:22;100756.72;;;33.99;52.01
75942;BME280;64622;46.220;19.878;2023-06-22T10:08:51;100743.75;;;33.95;52.02
75942;BME280;64622;46.220;19.878;2023-06-22T10:11:18;100748.00;;;34.06;51.90
75942;BME280;64622;46.220;19.878;2023-06-22T10:13:45;100736.19;;;32.93;55.57
75942;BME280;64622;46.220;19.878;2023-06-22T10:16:11;100739.28;;;34.12;51.40
75942;BME280;64622;46.220;19.878;2023-06-22T10:18:38;100743.88;;;34.03;50.98
75942;BME280;64622;46.220;19.878;2023-06-22T10:21:04;100729.81;;;34.32;50.21
75942;BME280;64622;46.220;19.878;2023-06-22T10:23:31;100735.00;;;32.13;55.78
75942;BME280;64622;46.220;19.878;2023-06-22T10:25:57;100731.44;;;33.82;52.04
75942;BME280;64622;46.220;19.878;2023-06-22T10:28:24;100718.34;;;34.01;50.57
75942;BME280;64622;46.220;19.878;2023-06-22T10:30:50;100730.62;;;34.14;49.49
75942;BME280;64622;46.220;19.878;2023-06-22T10:33:17;100722.38;;;34.09;49.70
75942;BME280;64622;46.220;19.878;2023-06-22T10:35:44;100721.31;;;34.69;48.78
75942;BME280;64622;46.220;19.878;2023-06-22T10:38:10;100717.91;;;34.45;48.81
75942;BME280;64622;46.220;19.878;2023-06-22T10:40:37;100716.84;;;34.86;47.79
75942;BME280;64622;46.220;19.878;2023-06-22T10:43:05;100714.25;;;34.31;49.13
75942;BME280;64622;46.220;19.878;2023-06-22T10:45:32;100714.78;;;34.78;47.64
75942;BME280;64622;46.220;19.878;2023-06-22T10:47:58;100716.00;;;35.13;47.30
75942;BME280;64622;46.220;19.878;2023-06-22T10:50:25;100717.53;;;34.65;48.08
75942;BME280;64622;46.220;19.878;2023-06-22T10:52:52;100704.47;;;34.79;48.96
75942;BME280;64622;46.220;19.878;2023-06-22T10:55:19;100715.00;;;35.36;47.25
75942;BME280;64622;46.220;19.878;2023-06-22T10:57:45;100712.81;;;35.19;49.27
75942;BME280;64622;46.220;19.878;2023-06-22T11:00:14;100715.88;;;33.21;53.41
75942;BME280;64622;46.220;19.878;2023-06-22T11:02:41;100710.41;;;33.95;51.71
75942;BME280;64622;46.220;19.878;2023-06-22T11:05:08;100710.75;;;33.51;53.09
75942;BME280;64622;46.220;19.878;2023-06-22T11:07:34;100702.53;;;34.93;49.04
75942;BME280;64622;46.220;19.878;2023-06-22T11:10:03;100712.53;;;35.70;46.33
75942;BME280;64622;46.220;19.878;2023-06-22T11:12:30;100701.66;;;35.46;47.11
75942;BME280;64622;46.220;19.878;2023-06-22T11:14:56;100715.75;;;35.99;44.07
75942;BME280;64622;46.220;19.878;2023-06-22T11:17:23;100692.31;;;34.75;49.73
75942;BME280;64622;46.220;19.878;2023-06-22T11:19:50;100702.09;;;35.13;47.40
75942;BME280;64622;46.220;19.878;2023-06-22T11:22:17;100705.22;;;35.60;46.28
75942;BME280;64622;46.220;19.878;2023-06-22T11:24:43;100691.78;;;34.27;50.10
75942;BME280;64622;46.220;19.878;2023-06-22T11:27:10;100691.19;;;35.30;48.38
75942;BME280;64622;46.220;19.878;2023-06-22T11:29:36;100695.59;;;35.44;46.96
75942;BME280;64622;46.220;19.878;2023-06-22T11:32:03;100690.16;;;34.99;49.15
75942;BME280;64622;46.220;19.878;2023-06-22T11:34:29;100693.44;;;35.28;48.43
75942;BME280;64622;46.220;19.878;2023-06-22T11:36:56;100689.69;;;33.08;53.24
75942;BME280;64622;46.220;19.878;2023-06-22T11:39:22;100691.81;;;35.13;47.62
75942;BME280;64622;46.220;19.878;2023-06-22T11:41:49;100688.59;;;35.82;45.95
75942;BME280;64622;46.220;19.878;2023-06-22T11:44:16;100682.94;;;33.93;51.02
75942;BME280;64622;46.220;19.878;2023-06-22T11:46:42;100684.91;;;35.73;47.47
75942;BME280;64622;46.220;19.878;2023-06-22T11:49:09;100681.59;;;34.95;47.95
75942;BME280;64622;46.220;19.878;2023-06-22T11:51:35;100680.75;;;36.28;44.15
75942;BME280;64622;46.220;19.878;2023-06-22T11:54:03;100686.38;;;36.67;43.37
75942;BME280;64622;46.220;19.878;2023-06-22T11:56:29;100685.84;;;34.79;47.78
75942;BME280;64622;46.220;19.878;2023-06-22T11:58:56;100681.88;;;35.34;47.71
75942;BME280;64622;46.220;19.878;2023-06-22T12:01:23;100680.16;;;34.98;48.40
75942;BME280;64622;46.220;19.878;2023-06-22T12:03:49;100686.84;;;35.73;46.50
75942;BME280;64622;46.220;19.878;2023-06-22T12:06:17;100677.25;;;36.01;45.59
75942;BME280;64622;46.220;19.878;2023-06-22T12:08:43;100664.91;;;35.93;44.74
75942;BME280;64622;46.220;19.878;2023-06-22T12:11:10;100679.41;;;34.52;49.61
75942;BME280;64622;46.220;19.878;2023-06-22T12:13:37;100673.16;;;35.00;47.72
75942;BME280;64622;46.220;19.878;2023-06-22T12:16:04;100656.28;;;35.46;47.00
75942;BME280;64622;46.220;19.878;2023-06-22T12:18:32;100669.16;;;34.79;48.93
75942;BME280;64622;46.220;19.878;2023-06-22T12:20:59;100660.91;;;33.78;51.67
75942;BME280;64622;46.220;19.878;2023-06-22T12:23:25;100666.78;;;35.00;47.65
75942;BME280;64622;46.220;19.878;2023-06-22T12:25:52;100649.94;;;34.37;50.01
75942;BME280;64622;46.220;19.878;2023-06-22T12:28:18;100653.13;;;34.58;48.71
75942;BME280;64622;46.220;19.878;2023-06-22T12:30:45;100653.13;;;35.74;46.44
75942;BME280;64622;46.220;19.878;2023-06-22T12:33:11;100641.09;;;34.76;49.06
75942;BME280;64622;46.220;19.878;2023-06-22T12:35:38;100646.87;;;34.79;48.49
75942;BME280;64622;46.220;19.878;2023-06-22T12:38:04;100640.06;;;35.26;47.86
75942;BME280;64622;46.220;19.878;2023-06-22T12:40:33;100647.25;;;35.27;48.18
75942;BME280;64622;46.220;19.878;2023-06-22T12:43:00;100639.50;;;35.37;46.60